Braddyville, Iowa
Current Conditions -  °F | °C
As of 7:15 AM on Wednesday 22 Oct 2014 (Local Time) from KICL Reporting Station
Overcast Overcast  
Wind Chill: 52°   Ceiling: 3500
Heat Index: 52°   Visibility: 10mi
Dew Point: 43°   Wind: 7mph
Humidity: 71%   Direction: NA
Pressure: 30.18"   Gusts: 14mph
Location:  40.58°N, 95.03°W
Report Text: KICL 221215Z AUTO VRB06G12KT 10SM BKN035 OVC065 11/06 A3018 RMK AO2
Loading
Personal Weather Stations






























Interactive Weather Map
Tropical Storm Tracking
New forecast layout! Learn more

10-Day Weather Forecast

Advertisements
Track Severe Weather on mobile